Time;durP1;ratioP1;P1;durP2;ratioP2;P2;SDS_P1;SDS_P2;PMS_P1;PMS_P2;Temp;Humidity;BMP_temperature;BMP_pressure;BME280_temperature;BME280_humidity;BME280_pressure;Samples;Min_cycle;Max_cycle;Signal;HPM_P1;HPM_P2
2021/06/10 00:01:42;;;;;;;16.73;12.43;;;14.20;99.90;;;;;;4792620;29;20507;-93
2021/06/10 00:04:09;;;;;;;13.20;10.40;;;14.20;99.90;;;;;;4791535;29;20086;-93
2021/06/10 00:06:35;;;;;;;19.52;14.30;;;14.20;99.90;;;;;;4799345;29;20120;-91
2021/06/10 00:09:01;;;;;;;21.40;13.75;;;14.10;99.90;;;;;;4804760;29;20051;-92
2021/06/10 00:11:27;;;;;;;18.52;14.32;;;14.10;99.90;;;;;;4776132;29;20462;-91
2021/06/10 00:13:53;;;;;;;29.48;21.70;;;14.10;99.90;;;;;;4806832;29;20050;-91
2021/06/10 00:16:19;;;;;;;22.63;18.65;;;14.00;99.90;;;;;;4774880;29;20652;-91
2021/06/10 00:18:48;;;;;;;22.48;16.25;;;14.00;99.90;;;;;;4791350;29;20053;-94
2021/06/10 00:21:15;;;;;;;16.02;13.20;;;14.00;99.90;;;;;;4803709;29;20489;-92
2021/06/10 00:23:41;;;;;;;18.42;13.80;;;13.90;99.90;;;;;;4796657;29;20043;-90
2021/06/10 00:26:07;;;;;;;20.50;16.02;;;13.90;99.90;;;;;;4790203;29;20049;-90
2021/06/10 00:28:33;;;;;;;25.75;19.30;;;13.90;99.90;;;;;;4820327;29;20142;-90
2021/06/10 00:30:59;;;;;;;33.45;17.38;;;13.90;99.90;;;;;;4804712;29;20540;-89
2021/06/10 00:33:25;;;;;;;19.80;16.25;;;13.80;99.90;;;;;;4804223;29;20528;-89
2021/06/10 00:35:52;;;;;;;19.67;14.85;;;13.80;99.90;;;;;;4789428;29;20051;-90
2021/06/10 00:38:18;;;;;;;20.63;14.52;;;13.70;99.90;;;;;;4803775;29;20396;-89
2021/06/10 00:40:44;;;;;;;21.77;15.88;;;13.70;99.90;;;;;;4804829;29;20051;-88
2021/06/10 00:43:10;;;;;;;32.53;24.65;;;13.70;99.90;;;;;;4804283;29;20047;-89
2021/06/10 00:45:36;;;;;;;32.40;21.27;;;13.70;99.90;;;;;;4804500;29;20429;-88
2021/06/10 00:48:03;;;;;;;33.85;23.60;;;13.70;99.90;;;;;;4800726;29;20047;-89
2021/06/10 00:50:36;;;;;;;30.90;19.60;;;13.70;99.90;;;;;;4803758;29;20122;-89
2021/06/10 00:53:03;;;;;;;52.70;31.98;;;13.70;99.90;;;;;;4803453;29;20488;-90
2021/06/10 00:55:29;;;;;;;33.05;24.05;;;13.60;99.90;;;;;;4803959;29;20503;-91
2021/06/10 00:57:55;;;;;;;24.55;15.88;;;13.60;99.90;;;;;;4790551;29;20149;-90
2021/06/10 01:00:23;;;;;;;39.45;23.75;;;13.60;99.90;;;;;;4804021;29;20129;-91
2021/06/10 01:02:49;;;;;;;37.65;25.63;;;13.60;99.90;;;;;;4789712;29;20073;-90
2021/06/10 01:05:15;;;;;;;45.25;28.60;;;13.60;99.90;;;;;;4774975;29;20476;-91
2021/06/10 01:08:03;;;;;;;62.63;37.10;;;13.60;99.90;;;;;;4805871;29;20078;-89
2021/06/10 01:10:54;;;;;;;46.85;30.05;;;13.50;99.90;;;;;;4803670;29;20055;-89
2021/06/10 01:13:54;;;;;;;31.13;19.10;;;13.50;99.90;;;;;;4808970;29;20053;-89
2021/06/10 01:16:22;;;;;;;35.10;21.48;;;13.50;99.90;;;;;;4778750;29;20416;-90
2021/06/10 01:18:49;;;;;;;55.20;35.05;;;13.40;99.90;;;;;;4804256;29;20054;-89
2021/06/10 01:21:20;;;;;;;35.50;18.73;;;13.40;99.90;;;;;;4817717;29;20058;-89
2021/06/10 01:23:49;;;;;;;249.07;29.15;;;13.30;99.90;;;;;;4804389;29;20055;-89
2021/06/10 01:26:48;;;;;;;24.63;17.65;;;13.20;99.90;;;;;;4818665;29;20393;-91
2021/06/10 01:29:16;;;;;;;32.53;13.27;;;13.00;99.90;;;;;;4804308;29;20538;-90
2021/06/10 01:31:43;;;;;;;22.33;15.77;;;12.80;99.90;;;;;;4803744;29;20300;-90
2021/06/10 01:34:10;;;;;;;34.90;23.23;;;12.60;99.90;;;;;;4788113;29;20051;-89
2021/06/10 01:36:42;;;;;;;30.15;22.77;;;12.60;99.90;;;;;;4803650;29;20053;-89
2021/06/10 01:39:10;;;;;;;42.63;27.65;;;12.60;99.90;;;;;;4803305;29;20127;-89
2021/06/10 01:41:38;;;;;;;39.80;26.83;;;12.60;99.90;;;;;;4801635;29;20100;-89
2021/06/10 01:44:07;;;;;;;52.47;27.92;;;12.60;99.90;;;;;;4803297;29;20043;-90
2021/06/10 01:46:34;;;;;;;47.92;30.17;;;12.70;99.90;;;;;;4802946;29;20050;-88
2021/06/10 01:49:01;;;;;;;50.58;30.52;;;12.70;99.90;;;;;;4788593;29;20129;-89
2021/06/10 01:51:30;;;;;;;48.10;30.45;;;12.70;99.90;;;;;;4802377;29;20038;-89
2021/06/10 01:54:01;;;;;;;37.63;27.65;;;12.70;99.90;;;;;;4804988;29;20046;-89
2021/06/10 01:56:28;;;;;;;31.58;21.88;;;12.70;99.90;;;;;;4803587;29;20100;-89
2021/06/10 01:58:55;;;;;;;36.88;26.00;;;12.70;99.90;;;;;;4805088;29;20058;-90
2021/06/10 02:01:25;;;;;;;41.15;28.33;;;12.70;99.90;;;;;;4802871;29;20059;-89
2021/06/10 02:03:53;;;;;;;46.47;31.70;;;12.70;99.90;;;;;;4803984;29;20054;-89
2021/06/10 02:06:20;;;;;;;34.42;25.60;;;12.70;99.90;;;;;;4803558;29;20734;-89
2021/06/10 02:08:47;;;;;;;37.60;27.70;;;12.60;99.90;;;;;;4800327;29;20099;-90
2021/06/10 02:11:16;;;;;;;46.55;31.13;;;12.60;99.90;;;;;;4787770;29;20039;-89
2021/06/10 02:13:44;;;;;;;32.90;23.90;;;12.60;99.90;;;;;;4788917;29;20443;-90
2021/06/10 02:16:12;;;;;;;38.30;27.08;;;12.60;99.90;;;;;;4802538;29;20047;-91
2021/06/10 02:18:40;;;;;;;42.97;28.15;;;12.60;99.90;;;;;;4804116;29;20405;-90
2021/06/10 02:21:09;;;;;;;36.08;25.95;;;12.50;99.90;;;;;;4785836;29;20059;-90
2021/06/10 02:23:40;;;;;;;41.53;28.00;;;12.50;99.90;;;;;;4803641;29;20054;-89
2021/06/10 02:26:07;;;;;;;38.70;27.33;;;12.50;99.90;;;;;;4803795;29;20065;-89
2021/06/10 02:28:34;;;;;;;39.58;28.30;;;12.50;99.90;;;;;;4787614;29;20477;-89
2021/06/10 02:31:02;;;;;;;53.55;32.63;;;12.40;99.90;;;;;;4803536;29;20043;-88
2021/06/10 02:33:29;;;;;;;59.85;36.75;;;12.40;99.90;;;;;;4801851;29;20046;-89
2021/06/10 02:35:55;;;;;;;50.47;34.25;;;12.40;99.90;;;;;;4792383;29;20051;-89
2021/06/10 02:38:23;;;;;;;50.00;33.20;;;12.40;99.90;;;;;;4802830;29;20100;-89
2021/06/10 02:40:52;;;;;;;46.30;31.42;;;12.30;99.90;;;;;;4802278;29;20128;-90
2021/06/10 02:43:19;;;;;;;59.67;32.67;;;12.30;99.90;;;;;;4802790;29;20046;-90
2021/06/10 02:45:47;;;;;;;40.72;28.77;;;12.30;99.90;;;;;;4802484;29;20101;-89
2021/06/10 02:48:14;;;;;;;31.58;23.17;;;12.30;99.90;;;;;;4801581;29;20057;-90
2021/06/10 02:50:41;;;;;;;50.83;31.10;;;12.20;99.90;;;;;;4769890;30;20051;-89
2021/06/10 02:53:14;;;;;;;48.63;31.13;;;12.20;99.90;;;;;;4798218;29;20133;-89
2021/06/10 02:55:42;;;;;;;53.00;32.05;;;12.10;99.90;;;;;;4802495;29;20052;-90
2021/06/10 02:58:09;;;;;;;56.35;33.88;;;12.00;99.90;;;;;;4787482;29;20051;-89
2021/06/10 03:00:35;;;;;;;41.58;28.33;;;11.90;99.90;;;;;;4802856;29;20059;-91
2021/06/10 03:03:02;;;;;;;54.67;35.08;;;11.80;99.90;;;;;;4802707;29;20059;-91
2021/06/10 03:05:31;;;;;;;59.45;33.20;;;11.70;99.90;;;;;;4799735;29;20666;-90
2021/06/10 03:07:58;;;;;;;35.25;25.15;;;11.70;99.90;;;;;;4787528;29;20043;-90
2021/06/10 03:10:28;;;;;;;40.00;28.85;;;11.70;99.90;;;;;;4801658;29;20047;-90
2021/06/10 03:12:55;;;;;;;;;;;11.60;99.90;;;;;;4789716;29;20404;-90
2021/06/10 03:15:22;;;;;;;69.38;39.33;;;11.60;99.90;;;;;;4800721;29;19989;-90
2021/06/10 03:17:50;;;;;;;67.88;40.83;;;11.60;99.90;;;;;;4802070;29;20051;-91
2021/06/10 03:20:17;;;;;;;61.17;37.08;;;11.60;99.90;;;;;;4801314;29;20111;-91
2021/06/10 03:22:43;;;;;;;55.67;35.22;;;11.60;99.90;;;;;;4801227;29;20050;-91
2021/06/10 03:25:10;;;;;;;79.68;42.03;;;11.60;99.90;;;;;;4787188;29;20058;-91
2021/06/10 03:27:37;;;;;;;75.40;41.63;;;11.60;99.90;;;;;;4786803;29;20389;-90
2021/06/10 03:30:06;;;;;;;73.55;39.83;;;11.70;99.90;;;;;;4802531;29;20055;-91
2021/06/10 03:32:33;;;;;;;46.33;30.05;;;11.70;99.90;;;;;;4801917;29;20519;-91
2021/06/10 03:34:59;;;;;;;49.30;30.92;;;11.60;99.90;;;;;;4802646;29;20549;-91
2021/06/10 03:37:26;;;;;;;49.65;32.88;;;11.60;99.90;;;;;;4793568;29;20086;-89
2021/06/10 03:39:53;;;;;;;51.45;31.63;;;11.60;99.90;;;;;;4770884;29;20077;-91
2021/06/10 03:42:19;;;;;;;81.70;41.85;;;11.60;99.90;;;;;;4802038;29;20130;-90
2021/06/10 03:44:46;;;;;;;76.22;42.03;;;11.60;99.90;;;;;;4787521;29;20057;-91
2021/06/10 03:47:16;;;;;;;101.47;52.38;;;11.60;99.90;;;;;;4801951;29;20557;-90
2021/06/10 03:49:43;;;;;;;86.93;46.15;;;11.70;99.90;;;;;;4801934;29;20043;-91
2021/06/10 03:52:09;;;;;;;83.05;44.92;;;11.70;99.90;;;;;;4803723;29;20062;-90
2021/06/10 03:54:35;;;;;;;114.95;53.70;;;11.70;99.90;;;;;;4817566;29;20455;-90
2021/06/10 03:57:02;;;;;;;100.05;51.58;;;11.80;99.90;;;;;;4802554;29;20880;-92
2021/06/10 03:59:28;;;;;;;80.07;45.03;;;11.80;99.90;;;;;;4786953;29;20039;-91
2021/06/10 04:01:54;;;;;;;87.13;47.75;;;11.80;99.90;;;;;;4803230;29;20045;-91
2021/06/10 04:04:20;;;;;;;107.28;51.05;;;11.80;99.90;;;;;;4801981;29;20074;-91
2021/06/10 04:06:47;;;;;;;79.50;44.58;;;11.80;99.90;;;;;;4802543;29;20071;-91
2021/06/10 04:09:19;;;;;;;74.93;41.88;;;11.80;99.90;;;;;;4773504;29;20065;-92
2021/06/10 04:11:46;;;;;;;69.40;38.88;;;11.90;99.90;;;;;;4802832;29;20054;-92
2021/06/10 04:14:12;;;;;;;73.45;41.45;;;11.90;99.90;;;;;;4799843;29;20043;-92
2021/06/10 04:16:39;;;;;;;82.75;45.40;;;12.00;99.90;;;;;;4787322;29;20047;-92
2021/06/10 04:19:05;;;;;;;71.93;40.47;;;11.90;99.90;;;;;;4787904;29;20043;-92
2021/06/10 04:21:48;;;;;;;91.35;46.28;;;12.00;99.90;;;;;;4790194;29;20496;-92
2021/06/10 04:24:15;;;;;;;89.30;49.05;;;12.00;99.90;;;;;;4786756;29;20047;-93
2021/06/10 04:26:41;;;;;;;91.28;50.20;;;12.10;99.90;;;;;;4776882;29;20051;-92
2021/06/10 04:29:07;;;;;;;70.10;39.42;;;12.10;99.90;;;;;;4790999;29;20051;-92
2021/06/10 04:31:33;;;;;;;86.15;48.42;;;12.20;99.90;;;;;;4806154;29;20102;-91
2021/06/10 04:33:59;;;;;;;93.47;48.55;;;12.20;99.90;;;;;;4790520;29;20070;-91
2021/06/10 04:36:25;;;;;;;100.25;50.65;;;12.30;99.90;;;;;;4788970;29;20480;-89
2021/06/10 04:38:52;;;;;;;99.05;51.40;;;12.40;99.90;;;;;;4790069;29;20050;-90
2021/06/10 04:41:19;;;;;;;93.97;48.90;;;12.40;99.90;;;;;;4805656;29;20450;-91
2021/06/10 04:44:05;;;;;;;108.68;53.95;;;12.40;99.90;;;;;;4793389;29;20066;-92
2021/06/10 04:46:33;;;;;;;104.47;52.75;;;12.60;99.90;;;;;;4805458;29;20051;-91
2021/06/10 04:49:01;;;;;;;114.57;55.85;;;12.60;99.90;;;;;;4804832;29;20054;-91
2021/06/10 04:51:29;;;;;;;117.40;54.38;;;12.60;99.90;;;;;;4803000;29;20058;-90
2021/06/10 04:53:56;;;;;;;101.35;52.78;;;12.70;99.90;;;;;;4804057;29;20491;-91
2021/06/10 04:56:26;;;;;;;108.03;54.45;;;12.70;99.90;;;;;;4803765;29;20139;-91
2021/06/10 04:58:52;;;;;;;100.75;53.03;;;12.80;99.90;;;;;;4804664;29;20129;-90
2021/06/10 05:01:18;;;;;;;99.88;52.42;;;12.90;99.90;;;;;;4801967;29;20846;-90
2021/06/10 05:03:44;;;;;;;107.80;50.33;;;12.90;99.90;;;;;;4802533;29;20489;-88
2021/06/10 05:06:11;;;;;;;118.03;60.40;;;13.00;99.90;;;;;;4816766;29;20403;-90
2021/06/10 05:08:37;;;;;;;91.43;49.08;;;13.10;99.90;;;;;;4815097;29;20404;-90
2021/06/10 05:11:09;;;;;;;80.00;47.17;;;13.20;99.90;;;;;;4803822;29;20043;-89
2021/06/10 05:13:36;;;;;;;104.18;53.85;;;13.20;99.90;;;;;;4803538;29;20047;-89
2021/06/10 05:16:02;;;;;;;97.88;53.13;;;13.30;99.90;;;;;;4803583;29;20083;-90
2021/06/10 05:18:28;;;;;;;97.70;51.97;;;13.30;99.90;;;;;;4817939;29;20492;-90
2021/06/10 05:21:07;;;;;;;105.30;52.25;;;13.50;99.90;;;;;;4801410;29;20066;-90
2021/06/10 05:23:33;;;;;;;86.80;48.17;;;13.50;99.90;;;;;;4787024;29;20145;-90
2021/06/10 05:26:04;;;;;;;104.85;52.65;;;13.50;99.90;;;;;;4802299;29;20043;-90
2021/06/10 05:28:34;;;;;;;88.82;48.08;;;13.60;99.90;;;;;;4801082;29;20059;-91
2021/06/10 05:31:07;;;;;;;81.65;46.60;;;13.60;99.90;;;;;;4803120;29;20133;-90
2021/06/10 05:33:35;;;;;;;80.95;43.75;;;13.80;99.90;;;;;;4802333;29;20074;-90
2021/06/10 05:36:02;;;;;;;97.88;50.95;;;13.80;99.90;;;;;;4803167;29;20058;-92
2021/06/10 05:38:28;;;;;;;82.97;47.40;;;13.90;99.90;;;;;;4802398;29;20049;-90
2021/06/10 05:40:54;;;;;;;51.20;34.28;;;14.00;99.90;;;;;;4801196;29;20078;-90
2021/06/10 05:43:24;;;;;;;57.78;33.97;;;14.00;99.90;;;;;;4803191;29;20162;-90
2021/06/10 05:45:51;;;;;;;49.97;32.17;;;14.10;99.90;;;;;;4801506;29;20053;-89
2021/06/10 05:48:18;;;;;;;65.20;39.00;;;14.10;99.90;;;;;;4799271;29;20043;-91
2021/06/10 05:50:47;;;;;;;66.20;38.53;;;14.20;99.90;;;;;;4802257;29;20099;-89
2021/06/10 05:53:17;;;;;;;50.00;32.17;;;14.30;99.90;;;;;;4802595;29;20050;-90
2021/06/10 05:55:45;;;;;;;47.22;30.80;;;14.50;99.90;;;;;;4800424;29;20063;-90
2021/06/10 05:58:12;;;;;;;48.75;30.63;;;14.70;99.90;;;;;;4788016;29;20046;-90
2021/06/10 06:00:37;;;;;;;45.65;32.15;;;14.80;99.90;;;;;;4800925;29;20057;-89
2021/06/10 06:03:04;;;;;;;43.03;30.02;;;15.00;99.90;;;;;;4800566;29;20042;-90
2021/06/10 06:05:31;;;;;;;56.80;33.42;;;15.00;99.90;;;;;;4815728;29;20061;-88
2021/06/10 06:07:58;;;;;;;42.50;27.40;;;15.10;99.90;;;;;;4798722;29;20047;-88
2021/06/10 06:10:25;;;;;;;48.50;29.90;;;15.20;99.90;;;;;;4801322;29;20471;-89
2021/06/10 06:13:00;;;;;;;52.40;30.60;;;15.30;99.90;;;;;;4803956;29;20389;-88
2021/06/10 06:15:29;;;;;;;26.13;18.50;;;15.50;99.90;;;;;;4801078;29;20051;-90
2021/06/10 06:17:55;;;;;;;28.05;18.55;;;15.60;99.90;;;;;;4816726;29;20042;-88
2021/06/10 06:20:23;;;;;;;24.63;17.65;;;15.70;99.90;;;;;;4800664;29;20063;-89
2021/06/10 06:22:49;;;;;;;20.52;15.18;;;15.80;99.90;;;;;;4816048;29;20115;-89
2021/06/10 06:25:16;;;;;;;22.30;17.15;;;15.90;99.90;;;;;;4801507;29;20051;-89
2021/06/10 06:27:43;;;;;;;24.23;16.60;;;16.10;99.90;;;;;;4801583;29;20130;-88
2021/06/10 06:30:10;;;;;;;23.90;17.17;;;16.20;99.90;;;;;;4801737;29;20043;-88
2021/06/10 06:32:37;;;;;;;25.13;17.75;;;16.20;99.90;;;;;;4801589;29;20039;-88
2021/06/10 06:35:11;;;;;;;23.90;16.63;;;16.30;99.90;;;;;;4801540;29;20089;-89
2021/06/10 06:37:57;;;;;;;22.45;17.17;;;16.30;99.90;;;;;;4789284;29;20082;-88
2021/06/10 06:40:26;;;;;;;21.75;14.70;;;16.40;99.90;;;;;;4816772;29;20472;-88
2021/06/10 06:42:54;;;;;;;18.23;15.15;;;16.50;99.90;;;;;;4801434;29;20065;-88
2021/06/10 06:45:21;;;;;;;20.33;14.75;;;16.60;99.90;;;;;;4786220;29;20039;-89
2021/06/10 06:47:46;;;;;;;19.38;13.70;;;16.70;99.90;;;;;;4801055;29;20098;-89
2021/06/10 06:50:16;;;;;;;16.13;13.00;;;16.80;99.90;;;;;;4801050;29;20038;-89
2021/06/10 06:52:52;;;;;;;16.08;12.30;;;16.80;99.90;;;;;;4801268;29;20043;-89
2021/06/10 06:55:18;;;;;;;14.43;11.90;;;16.90;99.90;;;;;;4802395;29;20061;-89
2021/06/10 06:57:46;;;;;;;14.32;11.30;;;17.00;99.90;;;;;;4786092;29;20057;-90
2021/06/10 07:00:12;;;;;;;13.65;11.00;;;17.10;99.90;;;;;;4784376;29;20055;-90
2021/06/10 07:02:39;;;;;;;14.20;10.68;;;17.10;99.90;;;;;;4801118;29;20049;-91
2021/06/10 07:05:06;;;;;;;15.82;11.27;;;17.20;99.90;;;;;;4799017;29;20043;-90
2021/06/10 07:07:42;;;;;;;13.35;10.57;;;17.30;99.90;;;;;;4815303;29;20042;-90
2021/06/10 07:10:14;;;;;;;15.35;9.95;;;17.30;99.90;;;;;;4787493;29;20116;-91
2021/06/10 07:12:53;;;;;;;18.48;11.52;;;17.40;99.90;;;;;;4788488;29;20405;-91
2021/06/10 07:15:20;;;;;;;15.88;9.93;;;17.40;99.90;;;;;;4801918;29;20074;-90
2021/06/10 07:17:51;;;;;;;14.90;9.48;;;17.50;99.90;;;;;;4800756;29;20632;-90
2021/06/10 07:20:17;;;;;;;15.85;9.93;;;17.60;99.90;;;;;;4796342;29;20052;-90
2021/06/10 07:22:47;;;;;;;12.93;9.65;;;17.60;99.90;;;;;;4786758;29;20058;-91
2021/06/10 07:25:13;;;;;;;28.58;9.85;;;17.60;99.90;;;;;;4801676;29;20385;-91
2021/06/10 07:27:48;;;;;;;12.57;9.85;;;17.70;99.90;;;;;;4804318;29;20074;-91
2021/06/10 07:30:16;;;;;;;11.20;8.90;;;17.90;99.90;;;;;;4801887;29;20389;-91
2021/06/10 07:32:45;;;;;;;;;;;18.00;99.90;;;;;;4783430;29;20188;-91
2021/06/10 07:35:22;;;;;;;14.30;9.60;;;18.00;99.90;;;;;;4801394;29;19925;-92
2021/06/10 07:37:49;;;;;;;20.25;9.77;;;18.10;99.90;;;;;;4801004;29;20073;-93
2021/06/10 07:40:17;;;;;;;13.70;11.20;;;18.20;99.90;;;;;;4801510;29;20061;-91
2021/06/10 07:42:44;;;;;;;13.52;10.10;;;18.30;99.90;;;;;;4800660;29;20520;-92
2021/06/10 07:45:10;;;;;;;13.30;11.55;;;18.40;99.90;;;;;;4802359;29;20054;-91
2021/06/10 07:47:37;;;;;;;13.27;10.10;;;18.50;99.90;;;;;;4800877;29;20053;-92
2021/06/10 07:50:04;;;;;;;14.25;9.52;;;18.60;99.90;;;;;;4801598;29;20078;-91
2021/06/10 07:52:30;;;;;;;14.98;10.85;;;18.70;99.90;;;;;;4801739;29;20059;-92
2021/06/10 07:54:56;;;;;;;22.13;11.57;;;18.70;99.90;;;;;;4801138;29;20133;-91
2021/06/10 07:57:23;;;;;;;10.65;9.18;;;18.80;99.90;;;;;;4802048;29;20401;-92
2021/06/10 07:59:49;;;;;;;14.13;10.07;;;18.90;99.90;;;;;;4786078;29;20070;-92
2021/06/10 08:02:15;;;;;;;15.05;10.32;;;19.00;99.90;;;;;;4805550;29;20070;-92
2021/06/10 08:04:40;;;;;;;22.80;11.50;;;19.20;99.90;;;;;;4787355;29;20081;-93
2021/06/10 08:07:08;;;;;;;20.20;12.63;;;19.30;99.90;;;;;;4805059;29;20106;-93
2021/06/10 08:09:35;;;;;;;15.57;11.70;;;19.30;99.90;;;;;;4804980;29;20082;-92
2021/06/10 08:12:02;;;;;;;14.55;11.60;;;19.40;99.90;;;;;;4775513;29;20139;-93
2021/06/10 08:14:28;;;;;;;13.88;11.05;;;19.40;99.90;;;;;;4806156;29;20053;-93
2021/06/10 08:16:55;;;;;;;25.52;11.48;;;19.50;99.90;;;;;;4805782;29;20099;-92
2021/06/10 08:19:21;;;;;;;18.23;12.27;;;19.60;99.90;;;;;;4790264;29;20047;-93
2021/06/10 08:21:47;;;;;;;12.95;10.90;;;19.60;99.90;;;;;;4799581;29;20074;-92
2021/06/10 08:24:15;;;;;;;11.48;9.40;;;19.70;99.90;;;;;;4806080;29;20122;-92
2021/06/10 08:26:44;;;;;;;16.90;12.48;;;19.70;99.90;;;;;;4789720;29;20046;-92
2021/06/10 08:29:12;;;;;;;21.02;11.55;;;19.80;99.90;;;;;;4805036;29;20047;-93
2021/06/10 08:31:38;;;;;;;11.93;10.50;;;20.00;99.90;;;;;;4805638;29;20428;-92
2021/06/10 08:34:04;;;;;;;14.40;10.00;;;20.00;99.90;;;;;;4805395;29;20100;-93
2021/06/10 08:36:30;;;;;;;13.02;9.77;;;20.10;99.90;;;;;;4805965;29;20043;-93
2021/06/10 08:38:57;;;;;;;11.00;7.88;;;20.20;99.90;;;;;;4804074;29;20594;-93
2021/06/10 08:41:26;;;;;;;7.97;7.18;;;20.30;99.90;;;;;;4789750;29;20054;-92
2021/06/10 08:43:52;;;;;;;8.93;7.87;;;20.40;99.90;;;;;;4805265;29;20046;-92
2021/06/10 08:46:20;;;;;;;12.73;8.73;;;20.50;99.90;;;;;;4804295;29;20099;-94
2021/06/10 08:48:49;;;;;;;10.15;7.65;;;20.50;99.90;;;;;;4804377;29;20510;-93
2021/06/10 08:51:15;;;;;;;10.20;8.07;;;20.60;99.90;;;;;;4805747;29;20492;-94
2021/06/10 08:53:41;;;;;;;9.25;8.23;;;20.70;99.90;;;;;;4803832;29;20046;-93
2021/06/10 08:56:10;;;;;;;8.88;7.65;;;20.70;99.90;;;;;;4789942;29;20055;-92
2021/06/10 08:58:38;;;;;;;9.07;7.97;;;20.70;99.90;;;;;;4804527;29;20108;-92
2021/06/10 09:01:11;;;;;;;9.75;7.80;;;20.70;99.90;;;;;;4804870;29;20100;-93
2021/06/10 09:03:37;;;;;;;12.95;9.35;;;20.70;99.90;;;;;;4788244;29;20061;-93
2021/06/10 09:06:10;;;;;;;16.08;9.88;;;20.60;99.90;;;;;;4774229;29;20480;-93
2021/06/10 09:08:38;;;;;;;13.65;9.10;;;20.50;99.90;;;;;;4804383;29;20504;-93
2021/06/10 09:11:13;;;;;;;12.10;9.13;;;20.60;99.90;;;;;;4805326;29;20038;-93
2021/06/10 09:13:42;;;;;;;9.85;8.00;;;20.60;99.90;;;;;;4802772;29;20060;-93
2021/06/10 09:16:23;;;;;;;14.00;8.63;;;20.50;99.90;;;;;;4803621;29;20069;-93
2021/06/10 09:19:16;;;;;;;10.07;8.63;;;20.60;99.90;;;;;;4804543;29;20070;-93
2021/06/10 09:21:46;;;;;;;13.90;9.05;;;20.60;99.90;;;;;;4804333;29;20548;-92
2021/06/10 09:24:23;;;;;;;12.85;9.60;;;20.60;99.90;;;;;;4814437;29;20058;-92
2021/06/10 09:27:16;;;;;;;14.52;9.15;;;20.70;99.90;;;;;;4804809;29;20043;-92
2021/06/10 09:29:50;;;;;;;16.33;10.60;;;20.70;99.90;;;;;;4800525;29;20067;-92
2021/06/10 09:32:27;;;;;;;17.52;12.23;;;20.80;99.90;;;;;;4803678;29;20121;-93
2021/06/10 09:35:05;;;;;;;17.52;11.20;;;20.80;99.90;;;;;;4802585;29;20039;-94
2021/06/10 09:37:35;;;;;;;13.77;10.88;;;20.80;99.90;;;;;;4804157;29;20051;-94
2021/06/10 09:40:06;;;;;;;14.70;11.30;;;20.80;99.90;;;;;;4804231;29;20063;-93
2021/06/10 09:42:35;;;;;;;14.57;10.15;;;20.70;99.90;;;;;;4805209;29;20492;-94
2021/06/10 09:45:04;;;;;;;12.35;9.20;;;20.80;99.90;;;;;;4803228;29;20054;-94
2021/06/10 09:47:33;;;;;;;15.80;11.23;;;20.80;99.90;;;;;;4803333;29;20066;-92
2021/06/10 09:50:22;;;;;;;11.93;10.40;;;20.80;99.90;;;;;;4803176;29;20396;-94
2021/06/10 09:52:53;;;;;;;12.15;9.80;;;20.70;99.90;;;;;;4818210;29;20433;-93
2021/06/10 09:55:56;;;;;;;13.15;9.50;;;20.60;99.90;;;;;;4804959;29;20123;-94
2021/06/10 09:58:27;;;;;;;16.15;9.68;;;20.40;99.90;;;;;;4804156;29;20046;-94
2021/06/10 10:00:56;;;;;;;13.25;9.57;;;20.40;99.90;;;;;;4804238;29;20043;-94
2021/06/10 10:03:22;;;;;;;12.40;9.40;;;20.40;99.90;;;;;;4804614;29;20055;-92
2021/06/10 10:05:53;;;;;;;17.33;9.90;;;20.40;99.90;;;;;;4803151;29;20397;-93
2021/06/10 10:08:19;;;;;;;12.05;9.88;;;20.40;99.90;;;;;;4803430;29;20135;-94
2021/06/10 10:10:45;;;;;;;14.05;9.05;;;20.40;99.90;;;;;;4803382;29;20130;-91
2021/06/10 10:13:13;;;;;;;16.70;8.63;;;20.50;99.90;;;;;;4795392;29;20051;-94
2021/06/10 10:15:40;;;;;;;13.85;9.82;;;20.60;99.90;;;;;;4789064;29;20051;-94
2021/06/10 10:18:06;;;;;;;13.45;9.93;;;20.60;99.90;;;;;;4773159;29;20047;-92
2021/06/10 10:20:33;;;;;;;16.83;10.48;;;20.70;99.90;;;;;;4803177;29;20396;-92
2021/06/10 10:22:59;;;;;;;15.73;10.85;;;20.60;99.90;;;;;;4802774;29;20051;-94
2021/06/10 10:25:25;;;;;;;18.15;10.60;;;20.60;99.90;;;;;;4802839;29;20057;-94
2021/06/10 10:27:52;;;;;;;13.30;9.90;;;20.50;99.90;;;;;;4802204;29;20051;-94
2021/06/10 10:30:21;;;;;;;16.13;10.18;;;20.60;99.90;;;;;;4803243;29;20078;-92
2021/06/10 10:32:47;;;;;;;13.73;10.55;;;20.60;99.90;;;;;;4782310;29;20381;-94
2021/06/10 10:35:34;;;;;;;17.50;10.27;;;20.60;99.90;;;;;;4788261;29;20908;-94
2021/06/10 10:38:10;;;;;;;16.05;11.57;;;20.50;99.90;;;;;;4801842;29;20054;-93
2021/06/10 10:40:40;;;;;;;16.48;11.77;;;20.50;99.90;;;;;;4804075;29;20057;-95
2021/06/10 10:43:14;;;;;;;15.55;10.43;;;20.50;99.90;;;;;;4787005;29;20039;-93
2021/06/10 10:45:45;;;;;;;12.55;10.07;;;20.50;99.90;;;;;;4797582;29;20079;-93
2021/06/10 10:48:14;;;;;;;18.60;10.85;;;20.40;99.90;;;;;;4787813;29;20046;-93
2021/06/10 10:50:44;;;;;;;13.40;10.68;;;20.50;99.90;;;;;;4804016;29;20042;-94
2021/06/10 10:53:19;;;;;;;12.10;9.60;;;20.50;99.90;;;;;;4803020;29;20058;-93
2021/06/10 10:55:59;;;;;;;13.82;9.27;;;20.60;99.90;;;;;;4803820;29;20078;-93
2021/06/10 10:58:25;;;;;;;16.70;10.48;;;20.70;99.90;;;;;;4788093;29;20126;-92
2021/06/10 11:00:58;;;;;;;13.30;10.20;;;20.70;99.90;;;;;;4802772;29;20119;-93
2021/06/10 11:03:34;;;;;;;11.25;9.15;;;20.70;99.90;;;;;;4803427;29;20061;-93
2021/06/10 11:06:22;;;;;;;11.57;8.38;;;20.80;99.90;;;;;;4803318;29;20042;-93
2021/06/10 11:09:16;;;;;;;13.00;8.38;;;20.80;99.90;;;;;;4803084;29;20039;-93
2021/06/10 11:11:49;;;;;;;15.93;8.52;;;20.90;99.90;;;;;;4802750;29;20070;-94
2021/06/10 11:14:33;;;;;;;10.93;7.55;;;21.00;99.90;;;;;;4800542;29;20141;-93
2021/06/10 11:17:20;;;;;;;11.68;8.05;;;21.10;99.90;;;;;;4801763;29;20492;-93
2021/06/10 11:19:50;;;;;;;13.40;9.52;;;21.20;99.90;;;;;;4805605;29;20047;-92
2021/06/10 11:22:35;;;;;;;;;;;21.30;99.90;;;;;;4803924;29;20062;-94
2021/06/10 11:25:02;;;;;;;11.90;8.20;;;21.40;99.90;;;;;;4806049;29;20386;-93
2021/06/10 11:27:35;;;;;;;12.15;7.68;;;21.50;99.90;;;;;;4803827;29;20102;-95
2021/06/10 11:30:31;;;;;;;6.65;6.00;;;21.60;99.90;;;;;;4802112;29;20058;-94
2021/06/10 11:32:56;;;;;;;9.48;8.35;;;21.70;99.90;;;;;;4788814;29;20055;-94
2021/06/10 11:35:48;;;;;;;12.85;8.82;;;21.90;99.90;;;;;;4802609;29;20051;-94
2021/06/10 11:38:32;;;;;;;10.50;9.20;;;22.00;99.90;;;;;;4796941;29;20629;-94
2021/06/10 11:41:11;;;;;;;13.02;8.27;;;22.00;99.90;;;;;;4805610;29;20047;-92
2021/06/10 11:43:42;;;;;;;11.48;8.85;;;22.10;99.90;;;;;;4803957;29;20043;-93
2021/06/10 11:46:10;;;;;;;10.00;8.98;;;22.30;99.90;;;;;;4789763;29;20051;-94
2021/06/10 11:48:41;;;;;;;11.30;8.68;;;22.30;99.90;;;;;;4790905;29;20039;-93
2021/06/10 11:51:24;;;;;;;15.45;8.50;;;22.30;99.90;;;;;;4790240;29;20115;-94
2021/06/10 11:53:52;;;;;;;12.00;8.68;;;22.30;99.90;;;;;;4805926;29;20054;-93
2021/06/10 11:56:25;;;;;;;10.90;8.68;;;22.40;99.90;;;;;;4805949;29;20055;-93
2021/06/10 11:58:53;;;;;;;10.10;7.85;;;22.40;99.90;;;;;;4792665;29;20050;-93
2021/06/10 12:01:20;;;;;;;11.32;7.03;;;22.30;99.90;;;;;;4790878;29;20385;-93
2021/06/10 12:03:48;;;;;;;8.80;7.20;;;22.30;99.90;;;;;;4790989;29;20051;-92
2021/06/10 12:06:16;;;;;;;9.02;7.50;;;22.30;99.90;;;;;;4804932;29;20503;-93
2021/06/10 12:08:46;;;;;;;12.60;8.88;;;22.30;99.90;;;;;;4806358;29;20126;-94
2021/06/10 12:11:15;;;;;;;14.73;8.38;;;22.30;99.90;;;;;;4805175;29;20112;-94
2021/06/10 12:13:52;;;;;;;16.48;9.10;;;22.40;99.90;;;;;;4804886;29;20071;-93
2021/06/10 12:16:19;;;;;;;9.20;7.72;;;22.40;99.90;;;;;;4790850;29;20047;-94
2021/06/10 12:18:48;;;;;;;8.32;7.10;;;22.30;99.90;;;;;;4806564;29;20046;-92
2021/06/10 12:21:16;;;;;;;7.57;6.43;;;22.30;99.90;;;;;;4789496;29;20158;-94
2021/06/10 12:23:48;;;;;;;8.50;7.03;;;22.40;99.90;;;;;;4804286;29;20131;-93
2021/06/10 12:26:19;;;;;;;7.30;6.47;;;22.50;99.90;;;;;;4802693;29;20043;-94
2021/06/10 12:29:00;;;;;;;11.18;5.63;;;22.40;99.90;;;;;;4806228;29;20043;-95
2021/06/10 12:31:33;;;;;;;15.00;5.18;;;22.50;99.90;;;;;;4805322;29;20043;-94
2021/06/10 12:34:02;;;;;;;5.07;4.57;;;22.50;99.90;;;;;;4806099;29;20499;-93
2021/06/10 12:36:42;;;;;;;8.60;5.10;;;22.70;99.90;;;;;;4805510;29;20059;-94
2021/06/10 12:39:19;;;;;;;4.45;4.05;;;22.80;99.90;;;;;;4805917;29;20545;-93
2021/06/10 12:41:52;;;;;;;6.47;4.30;;;22.90;99.90;;;;;;4805314;29;20054;-90
2021/06/10 12:44:27;;;;;;;6.13;4.55;;;22.90;99.80;;;;;;4788538;29;20636;-94